createdAt,value
2022-12-04T00:02:11.959Z,10.61
2022-12-04T00:04:38.728Z,10.59
2022-12-04T00:07:05.466Z,10.62
2022-12-04T00:09:32.324Z,10.66
2022-12-04T00:11:58.985Z,10.46
2022-12-04T00:14:25.700Z,10.39
2022-12-04T00:16:52.450Z,10.50
2022-12-04T00:19:19.798Z,10.54
2022-12-04T00:21:46.498Z,10.54
2022-12-04T00:24:13.237Z,10.73
2022-12-04T00:26:39.995Z,10.79
2022-12-04T00:29:06.714Z,10.67
2022-12-04T00:31:33.904Z,10.61
2022-12-04T00:34:02.103Z,10.77
2022-12-04T00:36:29.862Z,10.78
2022-12-04T00:38:59.562Z,10.69
2022-12-04T00:41:28.513Z,10.66
2022-12-04T00:43:55.194Z,10.65
2022-12-04T00:46:22.344Z,10.65
2022-12-04T00:48:49.559Z,10.66
2022-12-04T00:51:22.091Z,10.55
2022-12-04T00:53:49.140Z,10.57
2022-12-04T00:56:19.014Z,10.65
2022-12-04T00:58:46.257Z,10.66
2022-12-04T01:01:18.313Z,10.51
2022-12-04T01:03:45.233Z,10.45
2022-12-04T01:06:26.930Z,10.47
2022-12-04T01:08:55.252Z,10.33
2022-12-04T01:11:24.555Z,10.09
2022-12-04T01:13:51.575Z,10.04
2022-12-04T01:16:23.896Z,10.18
2022-12-04T01:18:51.549Z,10.23
2022-12-04T01:21:18.867Z,10.31
2022-12-04T01:23:46.052Z,10.23
2022-12-04T01:26:13.449Z,10.31
2022-12-04T01:28:41.022Z,10.32
2022-12-04T01:31:11.196Z,10.42
2022-12-04T01:33:38.224Z,10.40
2022-12-04T01:36:08.434Z,10.39
2022-12-04T01:38:37.647Z,10.28
2022-12-04T01:41:05.011Z,10.22
2022-12-04T01:43:34.136Z,10.14
2022-12-04T01:46:01.947Z,10.13
2022-12-04T01:48:32.448Z,10.10
2022-12-04T01:51:07.177Z,10.21
2022-12-04T01:53:38.010Z,10.07
2022-12-04T01:56:05.238Z,10.08
2022-12-04T01:58:37.888Z,10.25
2022-12-04T02:01:08.686Z,10.15
2022-12-04T02:03:37.797Z,10.19
2022-12-04T02:06:05.589Z,10.21
2022-12-04T02:08:33.929Z,10.19
2022-12-04T02:11:18.875Z,10.16
2022-12-04T02:13:51.276Z,10.18
2022-12-04T02:17:04.198Z,10.29
2022-12-04T02:19:39.652Z,10.31
2022-12-04T02:22:17.888Z,10.38
2022-12-04T02:25:10.298Z,10.43
2022-12-04T02:27:39.642Z,10.42
2022-12-04T02:30:13.112Z,10.33
2022-12-04T02:32:42.903Z,10.28
2022-12-04T02:35:15.454Z,10.27
2022-12-04T02:37:54.768Z,10.37
2022-12-04T02:40:25.428Z,10.44
2022-12-04T02:42:58.669Z,10.49
2022-12-04T02:45:30.101Z,10.14
2022-12-04T02:48:00.590Z,9.64
2022-12-04T02:50:30.056Z,9.82
2022-12-04T02:53:10.642Z,9.91
2022-12-04T02:56:00.293Z,9.95
2022-12-04T02:58:33.884Z,10.10
2022-12-04T03:01:02.991Z,10.23
2022-12-04T03:03:33.440Z,10.21
2022-12-04T03:06:05.230Z,10.04
2022-12-04T03:08:39.616Z,9.82
2022-12-04T03:11:06.469Z,9.65
2022-12-04T03:13:36.192Z,9.45
2022-12-04T03:16:12.492Z,9.43
2022-12-04T03:18:51.116Z,9.38
2022-12-04T03:21:21.948Z,9.40
2022-12-04T03:23:59.356Z,9.44
2022-12-04T03:26:31.674Z,9.47
2022-12-04T03:29:11.836Z,9.60
2022-12-04T03:32:08.300Z,9.59
2022-12-04T03:35:05.454Z,9.61
2022-12-04T03:37:43.271Z,9.47
2022-12-04T03:40:43.892Z,9.60
2022-12-04T03:43:20.327Z,9.76
2022-12-04T03:45:59.872Z,9.85
2022-12-04T03:48:33.150Z,9.85
2022-12-04T03:51:19.587Z,9.83
2022-12-04T03:53:54.704Z,9.94
2022-12-04T03:56:32.526Z,9.93
2022-12-04T03:59:05.798Z,9.91
2022-12-04T04:01:39.818Z,9.93
2022-12-04T04:04:12.695Z,9.87
2022-12-04T04:06:47.244Z,9.80
2022-12-04T04:09:19.305Z,9.91
2022-12-04T04:11:48.716Z,9.91
2022-12-04T04:14:51.622Z,9.94
2022-12-04T04:17:42.991Z,9.90
2022-12-04T04:20:34.771Z,10.00
2022-12-04T04:23:37.668Z,9.92
2022-12-04T04:26:05.419Z,9.88
2022-12-04T04:28:38.210Z,9.83
2022-12-04T04:31:42.689Z,9.70
2022-12-04T04:34:36.963Z,9.78
2022-12-04T04:37:12.495Z,9.82
2022-12-04T04:39:39.199Z,10.00
2022-12-04T04:42:26.084Z,10.02
2022-12-04T04:44:55.544Z,10.00
2022-12-04T04:47:31.767Z,10.07
2022-12-04T04:50:01.875Z,10.09
2022-12-04T04:52:29.905Z,10.12
2022-12-04T04:54:57.389Z,9.97
2022-12-04T04:57:37.949Z,9.95
2022-12-04T05:00:11.958Z,9.78
2022-12-04T05:02:38.830Z,9.59
2022-12-04T05:05:05.676Z,9.64
2022-12-04T05:07:32.476Z,9.76
2022-12-04T05:09:59.421Z,9.79
2022-12-04T05:12:26.375Z,9.64
2022-12-04T05:14:53.083Z,9.27
2022-12-04T05:17:19.844Z,9.49
2022-12-04T05:19:56.572Z,9.63
2022-12-04T05:22:27.833Z,9.74
2022-12-04T05:24:54.605Z,9.69
2022-12-04T05:27:22.736Z,9.65
2022-12-04T05:29:51.771Z,9.74
2022-12-04T05:32:18.532Z,9.74
2022-12-04T05:34:48.283Z,9.74
2022-12-04T05:37:14.988Z,9.69
2022-12-04T05:39:41.709Z,9.68
2022-12-04T05:42:08.445Z,9.75
2022-12-04T05:44:35.524Z,9.64
2022-12-04T05:47:02.444Z,9.51
2022-12-04T05:49:30.349Z,9.64
2022-12-04T05:51:57.122Z,9.74
2022-12-04T05:54:24.809Z,9.67
2022-12-04T05:56:51.523Z,9.59
2022-12-04T05:59:18.478Z,9.47
2022-12-04T06:01:45.766Z,9.53
2022-12-04T06:04:12.499Z,9.46
2022-12-04T06:06:39.570Z,9.51
2022-12-04T06:09:07.936Z,9.45
2022-12-04T06:11:38.183Z,9.40
2022-12-04T06:14:07.740Z,9.45
2022-12-04T06:16:40.731Z,9.61
2022-12-04T06:19:11.387Z,9.63
2022-12-04T06:21:40.367Z,9.53
2022-12-04T06:24:08.622Z,9.53
2022-12-04T06:26:35.455Z,9.50
2022-12-04T06:29:02.185Z,9.40
2022-12-04T06:31:30.105Z,9.49
2022-12-04T06:33:58.082Z,9.46
2022-12-04T06:36:25.565Z,9.50
2022-12-04T06:38:55.035Z,9.32
2022-12-04T06:41:23.145Z,9.47
2022-12-04T06:43:51.791Z,9.30
2022-12-04T06:46:21.902Z,9.36
2022-12-04T06:48:49.597Z,9.43
2022-12-04T06:51:26.516Z,9.39
2022-12-04T06:53:53.738Z,9.48
2022-12-04T06:56:23.343Z,9.45
2022-12-04T06:58:53.320Z,9.52
2022-12-04T07:01:23.073Z,9.46
2022-12-04T07:03:51.802Z,9.29
2022-12-04T07:06:22.555Z,9.25
2022-12-04T07:08:52.324Z,9.27
2022-12-04T07:11:20.090Z,9.24
2022-12-04T07:13:47.271Z,9.24
2022-12-04T07:16:15.811Z,9.28
2022-12-04T07:18:42.790Z,9.25
2022-12-04T07:21:12.275Z,9.14
2022-12-04T07:23:39.182Z,9.10
2022-12-04T07:26:07.827Z,8.99
2022-12-04T07:28:36.012Z,8.82
2022-12-04T07:31:07.559Z,8.95
2022-12-04T07:33:34.579Z,9.05
2022-12-04T07:36:03.057Z,9.22
2022-12-04T07:38:31.220Z,9.05
2022-12-04T07:40:58.896Z,9.23
2022-12-04T07:43:27.228Z,9.28
2022-12-04T07:45:53.950Z,9.43
2022-12-04T07:48:20.646Z,9.42
2022-12-04T07:50:47.477Z,9.45
2022-12-04T07:53:14.444Z,9.42
2022-12-04T07:55:41.489Z,9.45
2022-12-04T07:58:08.199Z,9.33
2022-12-04T08:00:34.885Z,9.45
2022-12-04T08:03:01.636Z,9.52
2022-12-04T08:05:28.356Z,9.63
2022-12-04T08:07:55.180Z,9.81
2022-12-04T08:10:21.877Z,9.92
2022-12-04T08:12:48.599Z,10.07
2022-12-04T08:15:15.380Z,10.27
2022-12-04T08:17:42.109Z,10.38
2022-12-04T08:20:09.052Z,10.25
2022-12-04T08:22:35.739Z,10.13
2022-12-04T08:25:02.541Z,10.29
2022-12-04T08:27:29.222Z,10.08
2022-12-04T08:29:56.062Z,10.20
2022-12-04T08:32:23.096Z,10.08
2022-12-04T08:34:55.677Z,10.05
2022-12-04T08:37:22.970Z,10.23
2022-12-04T08:39:49.707Z,10.45
2022-12-04T08:42:16.425Z,10.45
2022-12-04T08:44:43.089Z,10.22
2022-12-04T08:47:09.777Z,10.11
2022-12-04T08:49:36.429Z,9.84
2022-12-04T08:52:03.214Z,9.82
2022-12-04T08:54:35.818Z,9.77
2022-12-04T08:57:03.722Z,9.84
2022-12-04T08:59:30.591Z,9.97
2022-12-04T09:01:57.405Z,10.07
2022-12-04T09:04:24.134Z,10.11
2022-12-04T09:06:51.001Z,10.21
2022-12-04T09:09:17.807Z,10.07
2022-12-04T09:11:47.647Z,9.98
2022-12-04T09:14:14.339Z,9.91
2022-12-04T09:16:41.067Z,9.91
2022-12-04T09:19:07.796Z,10.05
2022-12-04T09:21:34.537Z,9.94
2022-12-04T09:24:01.302Z,9.79
2022-12-04T09:26:32.723Z,9.89
2022-12-04T09:29:01.355Z,9.97
2022-12-04T09:31:28.389Z,9.95
2022-12-04T09:33:55.864Z,10.10
2022-12-04T09:36:22.617Z,10.13
2022-12-04T09:38:51.937Z,10.37
2022-12-04T09:41:37.650Z,10.56
2022-12-04T09:44:26.198Z,10.62
2022-12-04T09:46:54.295Z,10.49
2022-12-04T09:49:26.755Z,10.30
2022-12-04T09:51:57.114Z,10.11
2022-12-04T09:54:28.327Z,9.91
2022-12-04T09:57:02.175Z,10.13
2022-12-04T09:59:32.504Z,10.14
2022-12-04T10:02:03.473Z,10.35
2022-12-04T10:04:31.009Z,10.51
2022-12-04T10:07:16.383Z,10.67
2022-12-04T10:09:59.154Z,10.66
2022-12-04T10:12:25.886Z,10.64
2022-12-04T10:14:52.458Z,10.62
2022-12-04T10:17:39.461Z,10.62
2022-12-04T10:20:27.907Z,10.71
2022-12-04T10:23:13.532Z,10.79
2022-12-04T10:25:42.309Z,10.82
2022-12-04T10:28:18.268Z,10.88
2022-12-04T10:30:46.068Z,10.90
2022-12-04T10:33:15.755Z,10.87
2022-12-04T10:35:44.775Z,10.85
2022-12-04T10:38:32.363Z,10.95
2022-12-04T10:41:15.182Z,10.88
2022-12-04T10:43:47.441Z,11.01
2022-12-04T10:46:18.808Z,11.03
2022-12-04T10:48:47.956Z,10.85
2022-12-04T10:51:21.389Z,10.94
2022-12-04T10:53:49.781Z,10.92
2022-12-04T10:56:23.401Z,10.98
2022-12-04T10:58:57.383Z,11.04
2022-12-04T11:01:24.650Z,11.12
2022-12-04T11:04:16.817Z,11.15
2022-12-04T11:06:43.572Z,11.06
2022-12-04T11:09:22.551Z,11.07
2022-12-04T11:11:50.331Z,11.09
2022-12-04T11:14:22.373Z,11.05
2022-12-04T11:16:50.192Z,11.20
2022-12-04T11:19:31.053Z,11.20
2022-12-04T11:22:05.291Z,11.29
2022-12-04T11:24:37.626Z,11.42
2022-12-04T11:27:05.893Z,11.41
2022-12-04T11:29:41.569Z,11.50
2022-12-04T11:32:25.708Z,11.57
2022-12-04T11:34:56.259Z,11.46
2022-12-04T11:37:27.738Z,11.48
2022-12-04T11:39:55.573Z,11.42
2022-12-04T11:42:31.064Z,11.38
2022-12-04T11:45:00.116Z,11.41
2022-12-04T11:47:29.747Z,11.39
2022-12-04T11:50:14.918Z,11.51
2022-12-04T11:53:02.705Z,11.66
2022-12-04T11:55:41.810Z,11.69
2022-12-04T11:58:26.260Z,11.69
2022-12-04T12:01:09.520Z,11.69
2022-12-04T12:04:02.890Z,11.67
2022-12-04T12:06:29.597Z,11.73
2022-12-04T12:09:03.142Z,11.75
2022-12-04T12:11:37.623Z,11.76
2022-12-04T12:14:26.430Z,11.74
2022-12-04T12:17:27.141Z,11.73
2022-12-04T12:20:04.582Z,11.81
2022-12-04T12:22:55.964Z,11.87
2022-12-04T12:25:36.448Z,11.95
2022-12-04T12:28:38.225Z,12.04
2022-12-04T12:31:10.695Z,12.19
2022-12-04T12:33:44.936Z,12.32
2022-12-04T12:36:14.104Z,12.43
2022-12-04T12:39:02.425Z,12.49
2022-12-04T12:41:47.587Z,12.62
2022-12-04T12:44:26.946Z,12.73
2022-12-04T12:47:00.565Z,12.82
2022-12-04T12:49:35.151Z,12.93
2022-12-04T12:52:25.027Z,13.09
2022-12-04T12:54:58.951Z,13.26
2022-12-04T12:57:39.744Z,13.22
2022-12-04T13:00:13.912Z,13.42
2022-12-04T13:02:52.055Z,13.51
2022-12-04T13:05:35.150Z,13.72
2022-12-04T13:08:21.551Z,13.91
2022-12-04T13:10:53.384Z,14.07
2022-12-04T13:13:34.493Z,14.18
2022-12-04T13:16:11.121Z,14.34
2022-12-04T13:18:47.696Z,14.51
2022-12-04T13:21:37.452Z,14.57
2022-12-04T13:24:32.525Z,14.58
2022-12-04T13:27:12.530Z,14.47
2022-12-04T13:30:00.886Z,14.48
2022-12-04T13:32:48.882Z,14.38
2022-12-04T13:35:52.731Z,14.46
2022-12-04T13:38:40.529Z,14.47
2022-12-04T13:41:10.942Z,14.46
2022-12-04T13:43:44.115Z,14.38
2022-12-04T13:46:36.891Z,14.19
2022-12-04T13:49:13.630Z,14.13
2022-12-04T13:51:41.791Z,14.16
2022-12-04T13:54:11.412Z,14.13
2022-12-04T13:56:43.564Z,14.05
2022-12-04T13:59:28.696Z,14.09
2022-12-04T14:02:02.249Z,14.10
2022-12-04T14:04:33.777Z,14.15
2022-12-04T14:07:03.921Z,14.21
2022-12-04T14:09:53.200Z,14.25
2022-12-04T14:12:27.233Z,14.24
2022-12-04T14:15:00.647Z,14.24
2022-12-04T14:17:34.307Z,14.15
2022-12-04T14:20:07.751Z,14.08
2022-12-04T14:22:37.959Z,14.10
2022-12-04T14:25:24.179Z,14.10
2022-12-04T14:27:53.223Z,14.18
2022-12-04T14:30:35.058Z,14.28
2022-12-04T14:33:10.120Z,14.30
2022-12-04T14:35:46.118Z,14.39
2022-12-04T14:38:20.225Z,14.41
2022-12-04T14:40:58.572Z,14.46
2022-12-04T14:43:30.264Z,14.48
2022-12-04T14:46:09.206Z,14.48
2022-12-04T14:49:00.742Z,14.53
2022-12-04T14:51:37.858Z,14.55
2022-12-04T14:54:19.756Z,14.54
2022-12-04T14:57:01.072Z,14.59
2022-12-04T14:59:49.448Z,14.58
2022-12-04T15:02:26.527Z,14.55
2022-12-04T15:04:54.089Z,14.55
2022-12-04T15:07:24.186Z,14.54
2022-12-04T15:10:14.786Z,14.52
2022-12-04T15:12:53.668Z,14.52
2022-12-04T15:15:27.437Z,14.53
2022-12-04T15:18:11.784Z,14.47
2022-12-04T15:21:00.175Z,14.51
2022-12-04T15:23:37.125Z,14.48
2022-12-04T15:26:25.089Z,14.37
2022-12-04T15:28:57.535Z,14.41
2022-12-04T15:31:35.003Z,14.41
2022-12-04T15:34:07.712Z,14.33
2022-12-04T15:36:49.927Z,14.33
2022-12-04T15:39:20.663Z,14.29
2022-12-04T15:41:47.825Z,14.24
2022-12-04T15:44:33.807Z,14.24
2022-12-04T15:47:02.967Z,14.25
2022-12-04T15:49:32.422Z,14.15
2022-12-04T15:52:05.423Z,14.14
2022-12-04T15:54:32.336Z,14.11
2022-12-04T15:57:06.019Z,14.10
2022-12-04T15:59:34.902Z,14.05
2022-12-04T16:02:21.623Z,13.98
2022-12-04T16:04:58.141Z,13.93
2022-12-04T16:07:28.813Z,13.91
2022-12-04T16:10:03.647Z,13.88
2022-12-04T16:12:32.191Z,13.82
2022-12-04T16:14:58.889Z,13.75
2022-12-04T16:17:33.948Z,13.74
2022-12-04T16:20:04.005Z,13.70
2022-12-04T16:22:31.538Z,13.65
2022-12-04T16:24:58.689Z,13.66
2022-12-04T16:27:25.912Z,13.66
2022-12-04T16:29:53.505Z,13.67
2022-12-04T16:32:30.871Z,13.58
2022-12-04T16:34:58.040Z,13.58
2022-12-04T16:37:25.074Z,13.53
2022-12-04T16:39:51.783Z,13.51
2022-12-04T16:42:22.786Z,13.47
2022-12-04T16:44:49.912Z,13.39
2022-12-04T16:47:17.107Z,13.39
2022-12-04T16:49:45.195Z,13.36
2022-12-04T16:52:12.390Z,13.39
2022-12-04T16:54:39.711Z,13.36
2022-12-04T16:57:09.001Z,13.32
2022-12-04T16:59:36.243Z,13.28
2022-12-04T17:02:06.948Z,13.27
2022-12-04T17:04:33.868Z,13.24
2022-12-04T17:07:00.609Z,13.20
2022-12-04T17:09:27.313Z,13.15
2022-12-04T17:11:54.100Z,13.15
2022-12-04T17:14:20.912Z,13.17
2022-12-04T17:16:47.599Z,13.09
2022-12-04T17:19:14.423Z,13.06
2022-12-04T17:21:41.770Z,13.06
2022-12-04T17:24:08.839Z,13.01
2022-12-04T17:26:35.797Z,13.04
2022-12-04T17:29:02.763Z,12.97
2022-12-04T17:31:30.511Z,12.95
2022-12-04T17:33:57.781Z,12.92
2022-12-04T17:36:26.222Z,12.93
2022-12-04T17:38:57.998Z,12.95
2022-12-04T17:41:25.160Z,12.90
2022-12-04T17:43:51.850Z,12.92
2022-12-04T17:46:24.056Z,12.94
2022-12-04T17:48:50.859Z,12.87
2022-12-04T17:51:20.766Z,12.81
2022-12-04T17:53:47.991Z,12.84
2022-12-04T17:56:17.628Z,12.83
2022-12-04T17:58:45.298Z,12.85
2022-12-04T18:01:14.727Z,12.83
2022-12-04T18:03:43.355Z,12.82
2022-12-04T18:06:17.655Z,12.73
2022-12-04T18:08:49.854Z,12.72
2022-12-04T18:11:20.759Z,12.70
2022-12-04T18:13:49.313Z,12.64
2022-12-04T18:16:16.122Z,12.67
2022-12-04T18:18:46.644Z,12.67
2022-12-04T18:21:14.296Z,12.67
2022-12-04T18:23:45.543Z,12.64
2022-12-04T18:26:18.933Z,12.49
2022-12-04T18:28:46.638Z,12.48
2022-12-04T18:31:14.977Z,12.45
2022-12-04T18:33:42.928Z,12.40
2022-12-04T18:36:16.255Z,12.36
2022-12-04T18:38:43.599Z,12.38
2022-12-04T18:41:12.019Z,12.34
2022-12-04T18:43:43.734Z,12.30
2022-12-04T18:46:13.932Z,12.25
2022-12-04T18:48:43.187Z,12.06
2022-12-04T18:51:22.983Z,12.16
2022-12-04T18:53:51.810Z,12.15
2022-12-04T18:56:19.909Z,12.11
2022-12-04T18:58:47.027Z,12.13
2022-12-04T19:01:16.656Z,12.12
2022-12-04T19:03:43.524Z,12.11
2022-12-04T19:06:10.678Z,12.04
2022-12-04T19:08:42.691Z,12.05
2022-12-04T19:11:13.574Z,11.86
2022-12-04T19:13:41.020Z,11.82
2022-12-04T19:16:13.129Z,11.65
2022-12-04T19:18:40.208Z,11.63
2022-12-04T19:21:07.341Z,11.48
2022-12-04T19:23:34.287Z,11.49
2022-12-04T19:26:01.705Z,11.48
2022-12-04T19:28:29.010Z,11.43
2022-12-04T19:30:56.408Z,11.31
2022-12-04T19:33:24.897Z,11.30
2022-12-04T19:36:05.646Z,11.40
2022-12-04T19:38:33.865Z,11.36
2022-12-04T19:41:12.275Z,11.38
2022-12-04T19:43:41.224Z,11.38
2022-12-04T19:46:09.436Z,11.43
2022-12-04T19:48:37.933Z,11.44
2022-12-04T19:51:16.611Z,11.40
2022-12-04T19:53:44.507Z,11.26
2022-12-04T19:56:14.710Z,11.25
2022-12-04T19:58:42.491Z,11.27
2022-12-04T20:01:12.817Z,11.18
2022-12-04T20:03:39.705Z,11.17
2022-12-04T20:06:09.185Z,11.21
2022-12-04T20:08:36.345Z,11.24
2022-12-04T20:11:08.256Z,11.30
2022-12-04T20:13:36.506Z,11.34
2022-12-04T20:16:05.152Z,11.34
2022-12-04T20:18:32.029Z,11.37
2022-12-04T20:21:01.078Z,11.39
2022-12-04T20:23:28.697Z,11.44
2022-12-04T20:25:55.426Z,11.46
2022-12-04T20:28:23.504Z,11.48
2022-12-04T20:30:50.294Z,11.51
2022-12-04T20:33:17.116Z,11.52
2022-12-04T20:35:43.776Z,11.47
2022-12-04T20:38:10.522Z,11.49
2022-12-04T20:40:37.315Z,11.50
2022-12-04T20:43:04.089Z,11.31
2022-12-04T20:45:31.117Z,11.31
2022-12-04T20:47:57.803Z,11.04
2022-12-04T20:50:24.930Z,11.07
2022-12-04T20:52:51.677Z,11.03
2022-12-04T20:55:18.546Z,11.10
2022-12-04T20:57:45.435Z,11.14
2022-12-04T21:00:13.008Z,11.20
2022-12-04T21:02:39.928Z,11.11
2022-12-04T21:05:07.627Z,11.12
2022-12-04T21:07:34.464Z,10.93
2022-12-04T21:10:01.247Z,10.85
2022-12-04T21:12:46.302Z,10.59
2022-12-04T21:15:31.423Z,10.59
2022-12-04T21:18:00.904Z,10.26
2022-12-04T21:20:27.611Z,10.18
2022-12-04T21:22:54.426Z,10.10
2022-12-04T21:25:21.315Z,9.93
2022-12-04T21:27:48.067Z,10.05
2022-12-04T21:30:14.869Z,9.80
2022-12-04T21:32:41.564Z,9.97
2022-12-04T21:35:08.711Z,10.05
2022-12-04T21:37:35.594Z,10.18
2022-12-04T21:40:03.865Z,10.10
2022-12-04T21:42:30.613Z,9.99
2022-12-04T21:45:01.443Z,9.89
2022-12-04T21:47:29.098Z,9.82
2022-12-04T21:49:56.569Z,9.88
2022-12-04T21:52:24.216Z,9.93
2022-12-04T21:54:54.509Z,10.08
2022-12-04T21:57:22.720Z,9.87
2022-12-04T21:59:51.727Z,9.69
2022-12-04T22:02:19.032Z,9.81
2022-12-04T22:04:45.806Z,9.73
2022-12-04T22:07:12.571Z,9.63
2022-12-04T22:09:40.026Z,9.59
2022-12-04T22:12:26.275Z,9.62
2022-12-04T22:14:53.953Z,9.51
2022-12-04T22:17:20.603Z,9.55
2022-12-04T22:19:47.314Z,9.42
2022-12-04T22:22:13.983Z,9.35
2022-12-04T22:24:41.689Z,9.41
2022-12-04T22:27:14.849Z,9.58
2022-12-04T22:29:50.250Z,9.59
2022-12-04T22:32:18.565Z,9.41
2022-12-04T22:34:47.915Z,9.28
2022-12-04T22:37:15.330Z,9.24
2022-12-04T22:39:42.042Z,9.19
2022-12-04T22:42:08.908Z,9.18
2022-12-04T22:44:35.601Z,9.32
2022-12-04T22:47:02.420Z,9.50
2022-12-04T22:49:29.103Z,9.50
2022-12-04T22:51:55.971Z,9.54
2022-12-04T22:54:22.756Z,9.70
2022-12-04T22:56:49.499Z,9.83
2022-12-04T22:59:16.144Z,9.95
2022-12-04T23:01:42.909Z,10.00
2022-12-04T23:04:10.026Z,10.09
2022-12-04T23:06:37.238Z,10.21
2022-12-04T23:09:11.520Z,10.20
2022-12-04T23:11:39.247Z,10.07
2022-12-04T23:14:07.737Z,10.10
2022-12-04T23:16:36.975Z,10.19
2022-12-04T23:19:05.495Z,10.14
2022-12-04T23:21:32.234Z,9.94
2022-12-04T23:23:58.945Z,10.13
2022-12-04T23:26:35.343Z,10.16
2022-12-04T23:29:02.596Z,10.15
2022-12-04T23:31:30.548Z,10.18
2022-12-04T23:33:57.414Z,9.95
2022-12-04T23:36:24.792Z,10.00
2022-12-04T23:38:51.536Z,9.90
2022-12-04T23:41:22.515Z,10.03
2022-12-04T23:43:51.455Z,9.93
2022-12-04T23:46:20.660Z,9.76
2022-12-04T23:48:48.285Z,9.63
2022-12-04T23:51:17.030Z,9.54
2022-12-04T23:53:44.507Z,9.69
2022-12-04T23:56:20.278Z,9.58
2022-12-04T23:58:49.094Z,9.53
